CFTIW CYAV-KCMX
Flight info
| Callsign | CFTIW |
|---|---|
| Flight time | 2h 42m |
| Altitude | 13000 |
| Route | DCT |
| Aircraft | BE58/L-SDE3/1200 |
Departure
| Time | 2026-05-06 14:58 |
|---|---|
| Airport | Winnipeg / St. Andrews Airport (CYAV) |
Arrival
| Time | 2026-05-06 17:41 |
|---|---|
| Airport | Houghton County Memorial Airport (KCMX) |
| Time | Latitude | Longitude | Altitude | Speed | Heading |
|---|---|---|---|---|---|
| 2026-05-06 14:49 | 50.05842 | -97.04109 | 757 ft | 0 kts | 41° |
| 2026-05-06 14:52 | 50.05830 | -97.04125 | 755 ft | 2 kts | 41° |
| 2026-05-06 14:52 | 50.05821 | -97.04137 | 757 ft | 0 kts | 41° |
| 2026-05-06 14:53 | 50.05823 | -97.04133 | 757 ft | 3 kts | 66° |
| 2026-05-06 14:53 | 50.05808 | -97.04092 | 755 ft | 7 kts | 104° |
| 2026-05-06 14:54 | 50.05793 | -97.04034 | 755 ft | 5 kts | 152° |
| 2026-05-06 14:54 | 50.05763 | -97.04031 | 757 ft | 4 kts | 187° |
| 2026-05-06 14:54 | 50.05729 | -97.04045 | 757 ft | 6 kts | 183° |
| 2026-05-06 14:54 | 50.05685 | -97.04048 | 757 ft | 7 kts | 189° |
| 2026-05-06 14:55 | 50.05631 | -97.04062 | 758 ft | 8 kts | 189° |
| 2026-05-06 14:55 | 50.05570 | -97.04074 | 758 ft | 9 kts | 186° |
| 2026-05-06 14:55 | 50.05525 | -97.04084 | 758 ft | 6 kts | 189° |
| 2026-05-06 14:55 | 50.05511 | -97.04087 | 757 ft | 0 kts | 189° |
| 2026-05-06 14:56 | 50.05498 | -97.04090 | 757 ft | 9 kts | 188° |
| 2026-05-06 14:56 | 50.05442 | -97.04091 | 758 ft | 5 kts | 144° |
| 2026-05-06 14:56 | 50.05419 | -97.04024 | 758 ft | 10 kts | 114° |
| 2026-05-06 14:57 | 50.05397 | -97.03946 | 758 ft | 0 kts | 111° |
| 2026-05-06 14:57 | 50.05396 | -97.03941 | 759 ft | 6 kts | 111° |
| 2026-05-06 14:58 | 50.05421 | -97.03872 | 757 ft | 12 kts | 8° |
| 2026-05-06 14:58 | 50.05684 | -97.03819 | 758 ft | 72 kts | 8° |
| 2026-05-06 14:58 | 50.06365 | -97.03670 | 939 ft | 111 kts | 8° |
| 2026-05-06 14:58 | 50.07131 | -97.03449 | 1500 ft | 111 kts | 14° |
| 2026-05-06 14:59 | 50.07748 | -97.02861 | 2349 ft | 102 kts | 46° |
| 2026-05-06 14:59 | 50.07987 | -97.01811 | 2994 ft | 113 kts | 84° |
| 2026-05-06 14:59 | 50.07738 | -97.00606 | 3559 ft | 127 kts | 129° |
| 2026-05-06 14:59 | 50.06954 | -96.99764 | 3975 ft | 145 kts | 151° |
| 2026-05-06 15:00 | 50.06098 | -96.98973 | 4638 ft | 137 kts | 154° |
| 2026-05-06 15:00 | 50.05326 | -96.98133 | 5292 ft | 132 kts | 139° |
| 2026-05-06 15:00 | 50.04685 | -96.97170 | 5890 ft | 131 kts | 135° |
| 2026-05-06 15:00 | 50.04064 | -96.96174 | 6483 ft | 123 kts | 129° |
| 2026-05-06 15:01 | 50.03573 | -96.95164 | 7043 ft | 113 kts | 121° |
| 2026-05-06 15:01 | 50.03107 | -96.94093 | 7401 ft | 124 kts | 121° |
| 2026-05-06 15:01 | 50.02652 | -96.92943 | 7842 ft | 125 kts | 109° |
| 2026-05-06 15:01 | 50.02333 | -96.91695 | 8303 ft | 125 kts | 108° |
| 2026-05-06 15:02 | 50.02098 | -96.90858 | 8625 ft | 125 kts | 109° |
| 2026-05-06 15:02 | 50.01755 | -96.89623 | 9087 ft | 124 kts | 109° |
| 2026-05-06 15:02 | 50.01414 | -96.88412 | 9538 ft | 124 kts | 109° |
| 2026-05-06 15:02 | 50.01068 | -96.87191 | 9989 ft | 123 kts | 109° |
| 2026-05-06 15:03 | 50.00722 | -96.85973 | 10393 ft | 123 kts | 109° |
| 2026-05-06 15:03 | 50.00376 | -96.84763 | 10792 ft | 122 kts | 109° |
| 2026-05-06 15:03 | 50.00032 | -96.83557 | 11191 ft | 122 kts | 109° |
| 2026-05-06 15:03 | 49.99690 | -96.82356 | 11584 ft | 121 kts | 109° |
| 2026-05-06 15:04 | 49.99348 | -96.81159 | 11968 ft | 121 kts | 109° |
| 2026-05-06 15:04 | 49.99008 | -96.79967 | 12357 ft | 120 kts | 109° |
| 2026-05-06 15:04 | 49.98668 | -96.78781 | 12724 ft | 120 kts | 108° |
| 2026-05-06 15:04 | 49.98324 | -96.77582 | 13003 ft | 130 kts | 109° |
| 2026-05-06 15:05 | 49.97904 | -96.76165 | 13026 ft | 157 kts | 111° |
| 2026-05-06 15:05 | 49.97423 | -96.74529 | 13026 ft | 174 kts | 111° |
| 2026-05-06 15:05 | 49.96915 | -96.72756 | 13024 ft | 184 kts | 111° |
| 2026-05-06 15:05 | 49.96387 | -96.70905 | 13015 ft | 190 kts | 111° |
| 2026-05-06 15:06 | 49.95847 | -96.69022 | 13013 ft | 192 kts | 111° |
| 2026-05-06 15:06 | 49.95300 | -96.67118 | 13008 ft | 193 kts | 111° |
| 2026-05-06 15:06 | 49.94751 | -96.65211 | 13007 ft | 194 kts | 111° |
| 2026-05-06 15:06 | 49.94199 | -96.63294 | 13007 ft | 194 kts | 111° |
| 2026-05-06 15:07 | 49.93653 | -96.61401 | 13008 ft | 195 kts | 111° |
| 2026-05-06 15:07 | 49.93099 | -96.59481 | 13006 ft | 195 kts | 111° |
| 2026-05-06 15:07 | 49.92545 | -96.57563 | 13003 ft | 195 kts | 111° |
| 2026-05-06 15:07 | 49.91989 | -96.55643 | 13007 ft | 195 kts | 111° |
| 2026-05-06 15:08 | 49.91434 | -96.53723 | 13007 ft | 195 kts | 111° |
| 2026-05-06 15:08 | 49.90878 | -96.51803 | 13004 ft | 195 kts | 111° |
| 2026-05-06 15:08 | 49.90323 | -96.49887 | 13009 ft | 195 kts | 111° |
| 2026-05-06 15:08 | 49.89767 | -96.47972 | 13010 ft | 194 kts | 111° |
| 2026-05-06 15:09 | 49.89212 | -96.46059 | 13005 ft | 194 kts | 111° |
| 2026-05-06 15:09 | 49.88657 | -96.44148 | 13005 ft | 195 kts | 111° |
| 2026-05-06 15:09 | 49.88109 | -96.42263 | 13092 ft | 191 kts | 111° |
| 2026-05-06 15:09 | 49.87561 | -96.40375 | 13091 ft | 193 kts | 111° |
| 2026-05-06 15:10 | 49.87008 | -96.38479 | 13098 ft | 193 kts | 111° |
| 2026-05-06 15:10 | 49.86454 | -96.36579 | 13098 ft | 194 kts | 111° |
| 2026-05-06 15:10 | 49.85898 | -96.34673 | 13098 ft | 194 kts | 111° |
| 2026-05-06 15:10 | 49.85342 | -96.32768 | 13098 ft | 194 kts | 111° |
| 2026-05-06 15:11 | 49.84787 | -96.30870 | 13098 ft | 193 kts | 111° |
| 2026-05-06 15:11 | 49.84237 | -96.28986 | 13094 ft | 191 kts | 111° |
| 2026-05-06 15:11 | 49.83689 | -96.27114 | 13093 ft | 191 kts | 111° |
| 2026-05-06 15:11 | 49.83327 | -96.25876 | 13090 ft | 190 kts | 111° |
| 2026-05-06 15:12 | 49.83029 | -96.24860 | 13087 ft | 190 kts | 111° |
| 2026-05-06 15:12 | 49.82483 | -96.22996 | 13093 ft | 190 kts | 111° |
| 2026-05-06 15:12 | 49.81947 | -96.21166 | 13115 ft | 189 kts | 111° |
| 2026-05-06 15:12 | 49.81396 | -96.19291 | 13117 ft | 189 kts | 111° |
| 2026-05-06 15:13 | 49.80858 | -96.17457 | 13114 ft | 189 kts | 111° |
| 2026-05-06 15:13 | 49.80305 | -96.15577 | 13114 ft | 189 kts | 111° |
| 2026-05-06 15:13 | 49.79760 | -96.13724 | 13115 ft | 189 kts | 111° |
| 2026-05-06 15:13 | 49.79214 | -96.11868 | 13116 ft | 189 kts | 111° |
| 2026-05-06 15:14 | 49.78675 | -96.10040 | 13113 ft | 189 kts | 111° |
| 2026-05-06 15:14 | 49.78121 | -96.08161 | 13114 ft | 189 kts | 111° |
| 2026-05-06 15:14 | 49.77582 | -96.06334 | 13114 ft | 189 kts | 111° |
| 2026-05-06 15:14 | 49.77035 | -96.04482 | 13113 ft | 189 kts | 111° |
| 2026-05-06 15:15 | 49.76487 | -96.02629 | 13119 ft | 189 kts | 111° |
| 2026-05-06 15:15 | 49.75939 | -96.00775 | 13119 ft | 189 kts | 111° |
| 2026-05-06 15:15 | 49.75390 | -95.98922 | 13115 ft | 189 kts | 111° |
| 2026-05-06 15:15 | 49.74842 | -95.97070 | 13116 ft | 189 kts | 111° |
| 2026-05-06 15:16 | 49.74294 | -95.95221 | 13117 ft | 189 kts | 111° |
| 2026-05-06 15:16 | 49.73744 | -95.93368 | 13116 ft | 189 kts | 111° |
| 2026-05-06 15:16 | 49.73194 | -95.91516 | 13117 ft | 189 kts | 111° |
| 2026-05-06 15:16 | 49.72645 | -95.89668 | 13118 ft | 189 kts | 111° |
| 2026-05-06 15:17 | 49.72094 | -95.87814 | 13114 ft | 189 kts | 111° |
| 2026-05-06 15:17 | 49.71543 | -95.85965 | 13117 ft | 190 kts | 111° |
| 2026-05-06 15:17 | 49.70992 | -95.84114 | 13117 ft | 189 kts | 111° |
| 2026-05-06 15:17 | 49.70441 | -95.82267 | 13114 ft | 189 kts | 111° |
| 2026-05-06 15:18 | 49.69891 | -95.80420 | 13110 ft | 189 kts | 111° |
| 2026-05-06 15:18 | 49.69339 | -95.78573 | 13111 ft | 189 kts | 111° |
| 2026-05-06 15:18 | 49.68787 | -95.76724 | 13115 ft | 189 kts | 111° |
| 2026-05-06 15:18 | 49.68236 | -95.74880 | 13113 ft | 189 kts | 111° |
| 2026-05-06 15:19 | 49.67683 | -95.73031 | 13117 ft | 189 kts | 111° |
| 2026-05-06 15:19 | 49.67130 | -95.71186 | 13121 ft | 189 kts | 111° |
| 2026-05-06 15:19 | 49.66578 | -95.69342 | 13115 ft | 189 kts | 111° |
| 2026-05-06 15:19 | 49.66024 | -95.67496 | 13117 ft | 189 kts | 111° |
| 2026-05-06 15:20 | 49.65471 | -95.65651 | 13118 ft | 189 kts | 111° |
| 2026-05-06 15:20 | 49.64917 | -95.63806 | 13115 ft | 190 kts | 112° |
| 2026-05-06 15:20 | 49.64369 | -95.61984 | 13120 ft | 190 kts | 112° |
| 2026-05-06 15:20 | 49.63814 | -95.60138 | 13118 ft | 190 kts | 112° |
| 2026-05-06 15:21 | 49.63257 | -95.58288 | 13119 ft | 190 kts | 112° |
| 2026-05-06 15:21 | 49.62701 | -95.56441 | 13119 ft | 190 kts | 112° |
| 2026-05-06 15:21 | 49.62145 | -95.54597 | 13114 ft | 190 kts | 111° |
| 2026-05-06 15:21 | 49.61588 | -95.52750 | 13116 ft | 189 kts | 111° |
| 2026-05-06 15:22 | 49.61032 | -95.50910 | 13115 ft | 189 kts | 112° |
| 2026-05-06 15:22 | 49.60476 | -95.49067 | 13115 ft | 190 kts | 112° |
| 2026-05-06 15:22 | 49.59919 | -95.47224 | 13118 ft | 190 kts | 112° |
| 2026-05-06 15:22 | 49.59361 | -95.45385 | 13117 ft | 190 kts | 112° |
| 2026-05-06 15:23 | 49.58804 | -95.43543 | 13115 ft | 189 kts | 112° |
| 2026-05-06 15:23 | 49.58246 | -95.41702 | 13113 ft | 189 kts | 112° |
| 2026-05-06 15:23 | 49.57689 | -95.39864 | 13114 ft | 189 kts | 112° |
| 2026-05-06 15:23 | 49.57131 | -95.38027 | 13114 ft | 189 kts | 112° |
| 2026-05-06 15:24 | 49.56574 | -95.36192 | 13116 ft | 189 kts | 112° |
| 2026-05-06 15:24 | 49.56017 | -95.34359 | 13112 ft | 189 kts | 112° |
| 2026-05-06 15:24 | 49.55459 | -95.32523 | 13113 ft | 189 kts | 112° |
| 2026-05-06 15:24 | 49.54900 | -95.30689 | 13115 ft | 189 kts | 112° |
| 2026-05-06 15:25 | 49.54343 | -95.28859 | 13117 ft | 189 kts | 112° |
| 2026-05-06 15:25 | 49.53784 | -95.27025 | 13117 ft | 189 kts | 112° |
| 2026-05-06 15:25 | 49.53225 | -95.25196 | 13117 ft | 189 kts | 112° |
| 2026-05-06 15:25 | 49.52666 | -95.23365 | 13118 ft | 189 kts | 112° |
| 2026-05-06 15:26 | 49.52108 | -95.21537 | 13116 ft | 189 kts | 112° |
| 2026-05-06 15:26 | 49.51549 | -95.19708 | 13115 ft | 189 kts | 112° |
| 2026-05-06 15:26 | 49.50990 | -95.17880 | 13116 ft | 189 kts | 112° |
| 2026-05-06 15:26 | 49.50436 | -95.16074 | 13113 ft | 189 kts | 112° |
| 2026-05-06 15:27 | 49.49878 | -95.14251 | 13112 ft | 189 kts | 112° |
| 2026-05-06 15:27 | 49.49318 | -95.12425 | 13113 ft | 188 kts | 112° |
| 2026-05-06 15:27 | 49.48759 | -95.10605 | 13110 ft | 188 kts | 112° |
| 2026-05-06 15:27 | 49.48200 | -95.08783 | 13113 ft | 188 kts | 112° |
| 2026-05-06 15:28 | 49.47641 | -95.06963 | 13113 ft | 188 kts | 112° |
| 2026-05-06 15:28 | 49.47081 | -95.05145 | 13114 ft | 188 kts | 112° |
| 2026-05-06 15:28 | 49.46521 | -95.03326 | 13115 ft | 188 kts | 112° |
| 2026-05-06 15:28 | 49.45960 | -95.01501 | 13113 ft | 189 kts | 112° |
| 2026-05-06 15:29 | 49.45398 | -94.99681 | 13110 ft | 188 kts | 112° |
| 2026-05-06 15:29 | 49.44838 | -94.97866 | 13110 ft | 188 kts | 112° |
| 2026-05-06 15:29 | 49.44277 | -94.96046 | 13110 ft | 188 kts | 112° |
| 2026-05-06 15:29 | 49.43714 | -94.94227 | 13112 ft | 188 kts | 112° |
| 2026-05-06 15:30 | 49.43153 | -94.92411 | 13106 ft | 188 kts | 112° |
| 2026-05-06 15:30 | 49.42591 | -94.90594 | 13108 ft | 188 kts | 112° |
| 2026-05-06 15:30 | 49.42029 | -94.88779 | 13109 ft | 188 kts | 112° |
| 2026-05-06 15:30 | 49.41468 | -94.86971 | 13109 ft | 188 kts | 112° |
| 2026-05-06 15:31 | 49.40907 | -94.85159 | 13107 ft | 188 kts | 113° |
| 2026-05-06 15:31 | 49.40346 | -94.83352 | 13106 ft | 188 kts | 112° |
| 2026-05-06 15:31 | 49.39785 | -94.81546 | 13106 ft | 187 kts | 113° |
| 2026-05-06 15:32 | 49.38664 | -94.77938 | 13105 ft | 187 kts | 113° |
| 2026-05-06 15:32 | 49.38110 | -94.76159 | 13108 ft | 187 kts | 113° |
| 2026-05-06 15:32 | 49.37549 | -94.74356 | 13106 ft | 187 kts | 113° |
| 2026-05-06 15:32 | 49.36986 | -94.72553 | 13105 ft | 187 kts | 113° |
| 2026-05-06 15:33 | 49.36425 | -94.70752 | 13109 ft | 187 kts | 113° |
| 2026-05-06 15:33 | 49.35863 | -94.68951 | 13110 ft | 187 kts | 113° |
| 2026-05-06 15:33 | 49.35300 | -94.67151 | 13106 ft | 187 kts | 113° |
| 2026-05-06 15:33 | 49.34738 | -94.65353 | 13107 ft | 187 kts | 113° |
| 2026-05-06 15:34 | 49.34176 | -94.63554 | 13107 ft | 187 kts | 113° |
| 2026-05-06 15:34 | 49.33613 | -94.61754 | 13107 ft | 187 kts | 113° |
| 2026-05-06 15:34 | 49.33049 | -94.59956 | 13103 ft | 187 kts | 113° |
| 2026-05-06 15:34 | 49.32484 | -94.58153 | 13104 ft | 187 kts | 113° |
| 2026-05-06 15:35 | 49.31919 | -94.56354 | 13105 ft | 187 kts | 113° |
| 2026-05-06 15:35 | 49.31355 | -94.54556 | 13104 ft | 187 kts | 113° |
| 2026-05-06 15:35 | 49.30792 | -94.52764 | 13103 ft | 187 kts | 113° |
| 2026-05-06 15:35 | 49.30229 | -94.50972 | 13100 ft | 187 kts | 113° |
| 2026-05-06 15:36 | 49.29665 | -94.49180 | 13100 ft | 187 kts | 113° |
| 2026-05-06 15:36 | 49.29100 | -94.47387 | 13102 ft | 187 kts | 113° |
| 2026-05-06 15:36 | 49.28535 | -94.45592 | 13101 ft | 187 kts | 113° |
| 2026-05-06 15:36 | 49.27977 | -94.43820 | 13098 ft | 187 kts | 113° |
| 2026-05-06 15:37 | 49.27410 | -94.42027 | 13093 ft | 187 kts | 113° |
| 2026-05-06 15:37 | 49.26844 | -94.40234 | 13096 ft | 187 kts | 114° |
| 2026-05-06 15:37 | 49.26279 | -94.38446 | 13094 ft | 187 kts | 114° |
| 2026-05-06 15:37 | 49.25716 | -94.36662 | 13095 ft | 186 kts | 113° |
| 2026-05-06 15:38 | 49.25150 | -94.34875 | 13094 ft | 186 kts | 113° |
| 2026-05-06 15:38 | 49.24585 | -94.33092 | 13092 ft | 186 kts | 113° |
| 2026-05-06 15:38 | 49.24019 | -94.31305 | 13090 ft | 186 kts | 114° |
| 2026-05-06 15:38 | 49.23454 | -94.29523 | 13092 ft | 187 kts | 113° |
| 2026-05-06 15:39 | 49.22886 | -94.27732 | 13091 ft | 186 kts | 114° |
| 2026-05-06 15:39 | 49.22320 | -94.25950 | 13094 ft | 186 kts | 114° |
| 2026-05-06 15:39 | 49.21755 | -94.24171 | 13093 ft | 186 kts | 114° |
| 2026-05-06 15:39 | 49.21187 | -94.22389 | 13094 ft | 186 kts | 113° |
| 2026-05-06 15:40 | 49.20621 | -94.20609 | 13087 ft | 186 kts | 113° |
| 2026-05-06 15:40 | 49.19891 | -94.18997 | 13089 ft | 188 kts | 142° |
| 2026-05-06 15:40 | 49.18684 | -94.18258 | 13090 ft | 188 kts | 167° |
| 2026-05-06 15:40 | 49.17426 | -94.17800 | 13089 ft | 189 kts | 167° |
| 2026-05-06 15:41 | 49.16147 | -94.17336 | 13092 ft | 189 kts | 168° |
| 2026-05-06 15:41 | 49.14867 | -94.16876 | 13091 ft | 189 kts | 167° |
| 2026-05-06 15:41 | 49.13586 | -94.16417 | 13089 ft | 189 kts | 168° |
| 2026-05-06 15:41 | 49.12308 | -94.15960 | 13080 ft | 185 kts | 168° |
| 2026-05-06 15:42 | 49.11054 | -94.15517 | 12640 ft | 187 kts | 168° |
| 2026-05-06 15:42 | 49.09783 | -94.15068 | 12221 ft | 187 kts | 168° |
| 2026-05-06 15:42 | 49.08519 | -94.14620 | 11828 ft | 186 kts | 168° |
| 2026-05-06 15:42 | 49.07266 | -94.14175 | 11445 ft | 185 kts | 168° |
| 2026-05-06 15:43 | 49.06019 | -94.13733 | 11072 ft | 184 kts | 168° |
| 2026-05-06 15:43 | 49.04777 | -94.13292 | 10718 ft | 183 kts | 168° |
| 2026-05-06 15:43 | 49.03541 | -94.12854 | 10378 ft | 182 kts | 168° |
| 2026-05-06 15:43 | 49.02311 | -94.12413 | 10050 ft | 181 kts | 167° |
| 2026-05-06 15:44 | 49.01164 | -94.11641 | 9688 ft | 181 kts | 148° |
| 2026-05-06 15:44 | 49.00116 | -94.10593 | 9339 ft | 180 kts | 146° |
| 2026-05-06 15:44 | 48.99081 | -94.09537 | 8997 ft | 179 kts | 146° |
| 2026-05-06 15:44 | 48.98085 | -94.08415 | 8668 ft | 178 kts | 135° |
| 2026-05-06 15:45 | 48.97337 | -94.06925 | 8364 ft | 177 kts | 121° |
| 2026-05-06 15:45 | 48.96675 | -94.05353 | 8109 ft | 176 kts | 121° |
| 2026-05-06 15:45 | 48.96016 | -94.03785 | 7864 ft | 175 kts | 121° |
| 2026-05-06 15:45 | 48.95363 | -94.02225 | 7628 ft | 175 kts | 121° |
| 2026-05-06 15:46 | 48.94714 | -94.00663 | 7401 ft | 174 kts | 121° |
| 2026-05-06 15:46 | 48.94068 | -93.99105 | 7174 ft | 174 kts | 121° |
| 2026-05-06 15:46 | 48.93424 | -93.97551 | 6959 ft | 174 kts | 121° |
| 2026-05-06 15:46 | 48.92782 | -93.95997 | 6750 ft | 173 kts | 121° |
| 2026-05-06 15:47 | 48.92153 | -93.94471 | 6561 ft | 172 kts | 121° |
| 2026-05-06 15:47 | 48.91520 | -93.92929 | 6355 ft | 172 kts | 121° |
| 2026-05-06 15:47 | 48.90881 | -93.91367 | 6156 ft | 171 kts | 121° |
| 2026-05-06 15:47 | 48.90259 | -93.89849 | 5971 ft | 171 kts | 121° |
| 2026-05-06 15:48 | 48.89633 | -93.88316 | 5787 ft | 171 kts | 121° |
| 2026-05-06 15:48 | 48.89011 | -93.86788 | 5608 ft | 169 kts | 121° |
| 2026-05-06 15:48 | 48.88396 | -93.85270 | 5428 ft | 166 kts | 121° |
| 2026-05-06 15:48 | 48.87786 | -93.83770 | 5057 ft | 167 kts | 121° |
| 2026-05-06 15:49 | 48.87181 | -93.82268 | 4714 ft | 166 kts | 121° |
| 2026-05-06 15:49 | 48.86619 | -93.80745 | 4360 ft | 165 kts | 116° |
| 2026-05-06 15:49 | 48.86126 | -93.79172 | 4056 ft | 164 kts | 115° |
| 2026-05-06 15:49 | 48.85636 | -93.77606 | 3756 ft | 164 kts | 115° |
| 2026-05-06 15:50 | 48.85151 | -93.76040 | 3477 ft | 164 kts | 115° |
| 2026-05-06 15:50 | 48.84669 | -93.74473 | 3276 ft | 164 kts | 115° |
| 2026-05-06 15:50 | 48.84189 | -93.72914 | 3117 ft | 163 kts | 115° |
| 2026-05-06 15:50 | 48.83708 | -93.71341 | 3070 ft | 165 kts | 115° |
| 2026-05-06 15:51 | 48.83388 | -93.70293 | 3071 ft | 166 kts | 115° |
| 2026-05-06 15:51 | 48.82887 | -93.68701 | 3071 ft | 167 kts | 116° |
| 2026-05-06 15:51 | 48.82552 | -93.67652 | 3070 ft | 167 kts | 116° |
| 2026-05-06 15:51 | 48.82484 | -93.67437 | 3069 ft | 167 kts | 116° |
| 2026-05-06 15:52 | 48.81986 | -93.65871 | 3064 ft | 168 kts | 116° |
| 2026-05-06 15:52 | 48.81312 | -93.63747 | 3066 ft | 169 kts | 116° |
| 2026-05-06 15:52 | 48.80968 | -93.62660 | 3064 ft | 169 kts | 116° |
| 2026-05-06 15:52 | 48.80455 | -93.61041 | 3056 ft | 170 kts | 116° |
| 2026-05-06 15:53 | 48.79865 | -93.59489 | 3061 ft | 170 kts | 124° |
| 2026-05-06 15:53 | 48.79166 | -93.58046 | 3059 ft | 171 kts | 129° |
| 2026-05-06 15:53 | 48.78439 | -93.56618 | 3057 ft | 171 kts | 129° |
| 2026-05-06 15:53 | 48.77709 | -93.55193 | 3049 ft | 171 kts | 129° |
| 2026-05-06 15:54 | 48.76978 | -93.53767 | 3052 ft | 171 kts | 129° |
| 2026-05-06 15:54 | 48.76199 | -93.52419 | 3052 ft | 169 kts | 140° |
| 2026-05-06 15:54 | 48.75294 | -93.51282 | 3049 ft | 169 kts | 143° |
| 2026-05-06 15:54 | 48.74391 | -93.50134 | 3049 ft | 170 kts | 141° |
| 2026-05-06 15:55 | 48.73495 | -93.48948 | 2972 ft | 172 kts | 141° |
| 2026-05-06 15:55 | 48.72590 | -93.47751 | 2811 ft | 172 kts | 141° |
| 2026-05-06 15:55 | 48.71686 | -93.46564 | 2646 ft | 172 kts | 141° |
| 2026-05-06 15:55 | 48.70743 | -93.45463 | 2490 ft | 169 kts | 148° |
| 2026-05-06 15:56 | 48.69759 | -93.44562 | 2339 ft | 166 kts | 154° |
| 2026-05-06 15:56 | 48.68760 | -93.43760 | 2333 ft | 159 kts | 155° |
| 2026-05-06 15:56 | 48.67781 | -93.43039 | 2329 ft | 155 kts | 162° |
| 2026-05-06 15:56 | 48.66792 | -93.42410 | 2325 ft | 151 kts | 154° |
| 2026-05-06 15:57 | 48.65940 | -93.41659 | 2323 ft | 134 kts | 149° |
| 2026-05-06 15:57 | 48.65249 | -93.40782 | 2324 ft | 123 kts | 139° |
| 2026-05-06 15:57 | 48.64665 | -93.39926 | 2323 ft | 112 kts | 139° |
| 2026-05-06 15:57 | 48.64108 | -93.39133 | 2313 ft | 113 kts | 148° |
| 2026-05-06 15:58 | 48.63410 | -93.38933 | 2487 ft | 99 kts | 217° |
| 2026-05-06 15:58 | 48.63131 | -93.39731 | 2630 ft | 85 kts | 288° |
| 2026-05-06 15:58 | 48.63519 | -93.40318 | 2433 ft | 78 kts | 319° |
| 2026-05-06 15:58 | 48.63893 | -93.40919 | 1889 ft | 79 kts | 309° |
| 2026-05-06 15:59 | 48.64235 | -93.41549 | 1559 ft | 76 kts | 306° |
| 2026-05-06 15:59 | 48.64521 | -93.42182 | 1429 ft | 72 kts | 304° |
| 2026-05-06 15:59 | 48.64832 | -93.42793 | 1284 ft | 73 kts | 306° |
| 2026-05-06 15:59 | 48.65125 | -93.43413 | 1140 ft | 70 kts | 306° |
| 2026-05-06 16:00 | 48.65367 | -93.43923 | 1125 ft | 42 kts | 304° |
| 2026-05-06 16:00 | 48.65499 | -93.44196 | 1126 ft | 24 kts | 306° |
| 2026-05-06 16:00 | 48.65560 | -93.44351 | 1124 ft | 9 kts | 257° |
| 2026-05-06 16:00 | 48.65491 | -93.44450 | 1125 ft | 17 kts | 213° |
| 2026-05-06 16:01 | 48.65400 | -93.44547 | 1122 ft | 15 kts | 213° |
| 2026-05-06 16:01 | 48.65329 | -93.44493 | 1125 ft | 17 kts | 126° |
| 2026-05-06 16:01 | 48.65249 | -93.44328 | 1124 ft | 19 kts | 127° |
| 2026-05-06 16:01 | 48.65177 | -93.44177 | 1124 ft | 17 kts | 125° |
| 2026-05-06 16:02 | 48.65110 | -93.44037 | 1121 ft | 14 kts | 124° |
| 2026-05-06 16:02 | 48.65053 | -93.43923 | 1124 ft | 11 kts | 128° |
| 2026-05-06 16:02 | 48.65025 | -93.43853 | 1121 ft | 5 kts | 95° |
| 2026-05-06 16:02 | 48.65037 | -93.43817 | 1120 ft | 4 kts | 20° |
| 2026-05-06 16:03 | 48.65047 | -93.43817 | 1123 ft | 0 kts | 357° |
| 2026-05-06 16:19 | 48.65034 | -93.43816 | 1123 ft | 2 kts | 357° |
| 2026-05-06 16:19 | 48.65019 | -93.43815 | 1123 ft | 0 kts | 357° |
| 2026-05-06 16:21 | 48.65036 | -93.43784 | 1119 ft | 10 kts | 69° |
| 2026-05-06 16:21 | 48.65078 | -93.43696 | 1120 ft | 11 kts | 36° |
| 2026-05-06 16:22 | 48.65147 | -93.43624 | 1123 ft | 12 kts | 42° |
| 2026-05-06 16:22 | 48.65193 | -93.43583 | 1125 ft | 10 kts | 341° |
| 2026-05-06 16:22 | 48.65296 | -93.43773 | 1124 ft | 48 kts | 305° |
| 2026-05-06 16:22 | 48.65602 | -93.44439 | 1351 ft | 89 kts | 307° |
| 2026-05-06 16:23 | 48.65938 | -93.45151 | 2097 ft | 87 kts | 303° |
| 2026-05-06 16:23 | 48.66339 | -93.45850 | 2780 ft | 90 kts | 335° |
| 2026-05-06 16:23 | 48.66922 | -93.45549 | 3413 ft | 105 kts | 52° |
| 2026-05-06 16:23 | 48.66984 | -93.44446 | 3992 ft | 114 kts | 114° |
| 2026-05-06 16:24 | 48.66607 | -93.43426 | 4611 ft | 106 kts | 116° |
| 2026-05-06 16:24 | 48.66279 | -93.42380 | 5018 ft | 120 kts | 115° |
| 2026-05-06 16:24 | 48.65776 | -93.41344 | 5499 ft | 124 kts | 131° |
| 2026-05-06 16:24 | 48.65210 | -93.40361 | 6012 ft | 124 kts | 130° |
| 2026-05-06 16:25 | 48.64636 | -93.39390 | 6513 ft | 124 kts | 131° |
| 2026-05-06 16:25 | 48.64061 | -93.38431 | 6977 ft | 122 kts | 130° |
| 2026-05-06 16:25 | 48.63497 | -93.37474 | 7420 ft | 121 kts | 130° |
| 2026-05-06 16:25 | 48.62941 | -93.36528 | 7844 ft | 120 kts | 125° |
| 2026-05-06 16:26 | 48.62573 | -93.35424 | 8265 ft | 117 kts | 110° |
| 2026-05-06 16:26 | 48.62236 | -93.34306 | 8677 ft | 116 kts | 102° |
| 2026-05-06 16:26 | 48.62035 | -93.33138 | 9080 ft | 114 kts | 98° |
| 2026-05-06 16:26 | 48.61847 | -93.31976 | 9473 ft | 113 kts | 97° |
| 2026-05-06 16:27 | 48.61663 | -93.30821 | 9861 ft | 113 kts | 99° |
| 2026-05-06 16:27 | 48.61458 | -93.29675 | 10202 ft | 113 kts | 100° |
| 2026-05-06 16:27 | 48.61226 | -93.28535 | 10529 ft | 114 kts | 107° |
| 2026-05-06 16:27 | 48.60925 | -93.27410 | 10874 ft | 116 kts | 107° |
| 2026-05-06 16:28 | 48.60623 | -93.26276 | 11240 ft | 117 kts | 108° |
| 2026-05-06 16:28 | 48.60316 | -93.25138 | 11610 ft | 117 kts | 109° |
| 2026-05-06 16:28 | 48.60005 | -93.24003 | 11963 ft | 118 kts | 108° |
| 2026-05-06 16:28 | 48.59692 | -93.22860 | 12325 ft | 118 kts | 109° |
| 2026-05-06 16:29 | 48.59383 | -93.21727 | 12674 ft | 119 kts | 109° |
| 2026-05-06 16:29 | 48.59064 | -93.20572 | 13009 ft | 122 kts | 109° |
| 2026-05-06 16:29 | 48.58697 | -93.19245 | 13026 ft | 150 kts | 111° |
| 2026-05-06 16:29 | 48.58256 | -93.17700 | 13031 ft | 169 kts | 111° |
| 2026-05-06 16:30 | 48.57886 | -93.16354 | 13031 ft | 178 kts | 110° |
| 2026-05-06 16:30 | 48.57319 | -93.14260 | 13020 ft | 185 kts | 111° |
| 2026-05-06 16:30 | 48.56823 | -93.12443 | 13022 ft | 188 kts | 111° |
| 2026-05-06 16:31 | 48.56321 | -93.10608 | 13018 ft | 190 kts | 111° |
| 2026-05-06 16:31 | 48.55815 | -93.08761 | 13017 ft | 191 kts | 111° |
| 2026-05-06 16:31 | 48.55306 | -93.06909 | 13020 ft | 191 kts | 111° |
| 2026-05-06 16:31 | 48.54796 | -93.05054 | 13020 ft | 191 kts | 111° |
| 2026-05-06 16:32 | 48.54286 | -93.03200 | 13023 ft | 191 kts | 111° |
| 2026-05-06 16:32 | 48.53776 | -93.01344 | 13023 ft | 192 kts | 111° |
| 2026-05-06 16:32 | 48.53263 | -92.99486 | 13024 ft | 192 kts | 111° |
| 2026-05-06 16:32 | 48.52751 | -92.97629 | 13023 ft | 191 kts | 111° |
| 2026-05-06 16:33 | 48.52245 | -92.95799 | 13019 ft | 192 kts | 111° |
| 2026-05-06 16:33 | 48.51733 | -92.93940 | 13022 ft | 192 kts | 111° |
| 2026-05-06 16:33 | 48.51220 | -92.92086 | 13024 ft | 192 kts | 111° |
| 2026-05-06 16:34 | 48.50192 | -92.88373 | 13027 ft | 192 kts | 111° |
| 2026-05-06 16:34 | 48.49676 | -92.86510 | 13026 ft | 192 kts | 111° |
| 2026-05-06 16:34 | 48.49161 | -92.84651 | 13028 ft | 192 kts | 111° |
| 2026-05-06 16:34 | 48.48645 | -92.82791 | 13028 ft | 192 kts | 111° |
| 2026-05-06 16:35 | 48.48129 | -92.80933 | 13024 ft | 192 kts | 111° |
| 2026-05-06 16:35 | 48.47612 | -92.79073 | 13026 ft | 192 kts | 111° |
| 2026-05-06 16:35 | 48.47095 | -92.77215 | 13024 ft | 192 kts | 112° |
| 2026-05-06 16:35 | 48.46577 | -92.75356 | 13025 ft | 193 kts | 111° |
| 2026-05-06 16:36 | 48.46060 | -92.73498 | 13025 ft | 192 kts | 111° |
| 2026-05-06 16:36 | 48.45541 | -92.71638 | 13026 ft | 192 kts | 112° |
| 2026-05-06 16:36 | 48.45023 | -92.69781 | 13027 ft | 192 kts | 112° |
| 2026-05-06 16:36 | 48.44504 | -92.67923 | 13026 ft | 193 kts | 112° |
| 2026-05-06 16:37 | 48.43985 | -92.66064 | 13030 ft | 193 kts | 112° |
| 2026-05-06 16:37 | 48.43464 | -92.64202 | 13026 ft | 193 kts | 112° |
| 2026-05-06 16:37 | 48.42942 | -92.62339 | 13030 ft | 193 kts | 112° |
| 2026-05-06 16:37 | 48.42420 | -92.60471 | 13029 ft | 193 kts | 112° |
| 2026-05-06 16:38 | 48.41897 | -92.58608 | 13027 ft | 194 kts | 112° |
| 2026-05-06 16:38 | 48.41373 | -92.56742 | 13025 ft | 194 kts | 112° |
| 2026-05-06 16:38 | 48.40848 | -92.54869 | 13023 ft | 194 kts | 112° |
| 2026-05-06 16:38 | 48.40323 | -92.53004 | 13029 ft | 194 kts | 112° |
| 2026-05-06 16:39 | 48.39798 | -92.51136 | 13023 ft | 194 kts | 112° |
| 2026-05-06 16:39 | 48.39449 | -92.49897 | 13024 ft | 194 kts | 112° |
| 2026-05-06 16:39 | 48.38753 | -92.47423 | 13029 ft | 194 kts | 112° |
| 2026-05-06 16:39 | 48.38227 | -92.45558 | 13022 ft | 194 kts | 112° |
| 2026-05-06 16:40 | 48.37700 | -92.43692 | 13023 ft | 194 kts | 112° |
| 2026-05-06 16:40 | 48.37344 | -92.42430 | 13020 ft | 194 kts | 112° |
| 2026-05-06 16:40 | 48.36647 | -92.39959 | 13025 ft | 194 kts | 112° |
| 2026-05-06 16:40 | 48.36290 | -92.38695 | 13016 ft | 194 kts | 112° |
| 2026-05-06 16:41 | 48.35761 | -92.36829 | 13028 ft | 194 kts | 112° |
| 2026-05-06 16:41 | 48.35237 | -92.34980 | 13012 ft | 194 kts | 112° |
| 2026-05-06 16:41 | 48.34708 | -92.33113 | 13016 ft | 194 kts | 112° |
| 2026-05-06 16:41 | 48.34177 | -92.31242 | 13029 ft | 194 kts | 112° |
| 2026-05-06 16:42 | 48.33648 | -92.29374 | 13023 ft | 194 kts | 112° |
| 2026-05-06 16:42 | 48.33118 | -92.27510 | 13028 ft | 194 kts | 112° |
| 2026-05-06 16:42 | 48.32588 | -92.25646 | 13017 ft | 194 kts | 112° |
| 2026-05-06 16:42 | 48.32058 | -92.23781 | 13027 ft | 194 kts | 113° |
| 2026-05-06 16:43 | 48.31527 | -92.21915 | 13030 ft | 194 kts | 112° |
| 2026-05-06 16:43 | 48.30995 | -92.20050 | 13015 ft | 195 kts | 113° |
| 2026-05-06 16:43 | 48.30464 | -92.18185 | 13024 ft | 194 kts | 113° |
| 2026-05-06 16:43 | 48.29933 | -92.16322 | 13015 ft | 194 kts | 113° |
| 2026-05-06 16:44 | 48.29401 | -92.14460 | 13031 ft | 194 kts | 113° |
| 2026-05-06 16:44 | 48.28868 | -92.12596 | 13018 ft | 194 kts | 113° |
| 2026-05-06 16:44 | 48.28335 | -92.10732 | 13016 ft | 194 kts | 113° |
| 2026-05-06 16:44 | 48.27802 | -92.08872 | 13016 ft | 194 kts | 113° |
| 2026-05-06 16:45 | 48.27269 | -92.07010 | 13018 ft | 194 kts | 113° |
| 2026-05-06 16:45 | 48.26734 | -92.05146 | 13013 ft | 194 kts | 113° |
| 2026-05-06 16:45 | 48.26199 | -92.03280 | 13014 ft | 195 kts | 113° |
| 2026-05-06 16:45 | 48.25664 | -92.01415 | 13010 ft | 194 kts | 113° |
| 2026-05-06 16:46 | 48.25129 | -91.99554 | 13014 ft | 194 kts | 113° |
| 2026-05-06 16:46 | 48.24592 | -91.97687 | 13012 ft | 194 kts | 113° |
| 2026-05-06 16:46 | 48.24056 | -91.95826 | 13025 ft | 195 kts | 113° |
| 2026-05-06 16:46 | 48.23519 | -91.93961 | 13013 ft | 195 kts | 113° |
| 2026-05-06 16:47 | 48.22982 | -91.92095 | 13014 ft | 195 kts | 114° |
| 2026-05-06 16:47 | 48.22444 | -91.90231 | 13008 ft | 195 kts | 113° |
| 2026-05-06 16:47 | 48.21904 | -91.88360 | 13006 ft | 195 kts | 114° |
| 2026-05-06 16:47 | 48.21373 | -91.86520 | 13005 ft | 195 kts | 114° |
| 2026-05-06 16:48 | 48.20833 | -91.84655 | 13009 ft | 195 kts | 114° |
| 2026-05-06 16:48 | 48.20294 | -91.82792 | 13010 ft | 195 kts | 114° |
| 2026-05-06 16:48 | 48.19756 | -91.80931 | 13011 ft | 195 kts | 114° |
| 2026-05-06 16:48 | 48.19215 | -91.79068 | 13008 ft | 195 kts | 114° |
| 2026-05-06 16:49 | 48.18676 | -91.77207 | 13011 ft | 195 kts | 114° |
| 2026-05-06 16:49 | 48.18135 | -91.75341 | 13011 ft | 195 kts | 114° |
| 2026-05-06 16:49 | 48.17595 | -91.73481 | 13015 ft | 195 kts | 114° |
| 2026-05-06 16:49 | 48.17052 | -91.71617 | 13005 ft | 195 kts | 114° |
| 2026-05-06 16:50 | 48.16510 | -91.69754 | 13008 ft | 195 kts | 114° |
| 2026-05-06 16:50 | 48.15968 | -91.67892 | 13007 ft | 195 kts | 114° |
| 2026-05-06 16:50 | 48.15425 | -91.66027 | 13005 ft | 195 kts | 114° |
| 2026-05-06 16:50 | 48.14881 | -91.64163 | 13005 ft | 195 kts | 114° |
| 2026-05-06 16:51 | 48.14339 | -91.62301 | 13007 ft | 195 kts | 114° |
| 2026-05-06 16:51 | 48.13795 | -91.60439 | 13001 ft | 195 kts | 114° |
| 2026-05-06 16:51 | 48.13257 | -91.58598 | 13001 ft | 195 kts | 114° |
| 2026-05-06 16:51 | 48.12711 | -91.56733 | 13003 ft | 195 kts | 114° |
| 2026-05-06 16:52 | 48.12167 | -91.54873 | 13006 ft | 195 kts | 114° |
| 2026-05-06 16:52 | 48.11621 | -91.53010 | 13002 ft | 196 kts | 114° |
| 2026-05-06 16:52 | 48.11076 | -91.51145 | 13006 ft | 196 kts | 114° |
| 2026-05-06 16:52 | 48.10529 | -91.49283 | 13006 ft | 196 kts | 114° |
| 2026-05-06 16:53 | 48.09981 | -91.47419 | 13005 ft | 196 kts | 114° |
| 2026-05-06 16:53 | 48.09432 | -91.45553 | 13003 ft | 196 kts | 114° |
| 2026-05-06 16:53 | 48.08886 | -91.43692 | 13003 ft | 196 kts | 114° |
| 2026-05-06 16:53 | 48.08337 | -91.41827 | 12997 ft | 196 kts | 114° |
| 2026-05-06 16:54 | 48.07788 | -91.39960 | 13003 ft | 196 kts | 114° |
| 2026-05-06 16:54 | 48.07236 | -91.38090 | 13000 ft | 196 kts | 114° |
| 2026-05-06 16:54 | 48.06687 | -91.36226 | 13001 ft | 196 kts | 114° |
| 2026-05-06 16:54 | 48.06135 | -91.34359 | 12997 ft | 196 kts | 114° |
| 2026-05-06 16:55 | 48.05584 | -91.32492 | 13005 ft | 196 kts | 114° |
| 2026-05-06 16:55 | 48.05031 | -91.30623 | 13000 ft | 196 kts | 114° |
| 2026-05-06 16:55 | 48.04479 | -91.28756 | 12998 ft | 196 kts | 114° |
| 2026-05-06 16:55 | 48.03926 | -91.26888 | 12997 ft | 197 kts | 114° |
| 2026-05-06 16:56 | 48.03373 | -91.25020 | 13001 ft | 196 kts | 114° |
| 2026-05-06 16:56 | 48.02821 | -91.23157 | 12999 ft | 196 kts | 114° |
| 2026-05-06 16:56 | 48.02267 | -91.21292 | 12995 ft | 196 kts | 114° |
| 2026-05-06 16:56 | 48.01714 | -91.19428 | 12995 ft | 196 kts | 114° |
| 2026-05-06 16:57 | 48.01160 | -91.17564 | 12999 ft | 196 kts | 114° |
| 2026-05-06 16:57 | 48.00605 | -91.15697 | 12993 ft | 197 kts | 114° |
| 2026-05-06 16:57 | 48.00048 | -91.13827 | 12995 ft | 197 kts | 114° |
| 2026-05-06 16:57 | 47.99491 | -91.11958 | 12993 ft | 197 kts | 114° |
| 2026-05-06 16:58 | 47.98935 | -91.10088 | 12993 ft | 197 kts | 114° |
| 2026-05-06 16:58 | 47.98376 | -91.08220 | 12993 ft | 197 kts | 114° |
| 2026-05-06 16:58 | 47.97819 | -91.06352 | 12992 ft | 197 kts | 114° |
| 2026-05-06 16:58 | 47.97260 | -91.04480 | 12992 ft | 198 kts | 114° |
| 2026-05-06 16:59 | 47.96700 | -91.02607 | 12991 ft | 198 kts | 114° |
| 2026-05-06 16:59 | 47.96138 | -91.00730 | 12991 ft | 198 kts | 114° |
| 2026-05-06 16:59 | 47.95577 | -90.98855 | 12987 ft | 198 kts | 114° |
| 2026-05-06 16:59 | 47.95015 | -90.96980 | 12984 ft | 198 kts | 114° |
| 2026-05-06 17:00 | 47.94452 | -90.95103 | 12986 ft | 198 kts | 114° |
| 2026-05-06 17:00 | 47.93894 | -90.93243 | 12986 ft | 199 kts | 114° |
| 2026-05-06 17:00 | 47.93330 | -90.91365 | 12986 ft | 199 kts | 114° |
| 2026-05-06 17:00 | 47.92765 | -90.89485 | 12987 ft | 199 kts | 114° |
| 2026-05-06 17:01 | 47.92192 | -90.87580 | 12979 ft | 198 kts | 115° |
| 2026-05-06 17:01 | 47.91636 | -90.85733 | 12977 ft | 199 kts | 114° |
| 2026-05-06 17:01 | 47.91069 | -90.83852 | 12977 ft | 199 kts | 114° |
| 2026-05-06 17:01 | 47.90502 | -90.81969 | 12973 ft | 199 kts | 114° |
| 2026-05-06 17:02 | 47.89933 | -90.80087 | 12969 ft | 199 kts | 114° |
| 2026-05-06 17:02 | 47.89365 | -90.78206 | 12960 ft | 200 kts | 114° |
| 2026-05-06 17:02 | 47.88794 | -90.76316 | 12963 ft | 199 kts | 114° |
| 2026-05-06 17:02 | 47.88226 | -90.74435 | 12961 ft | 199 kts | 114° |
| 2026-05-06 17:03 | 47.87656 | -90.72552 | 12951 ft | 199 kts | 115° |
| 2026-05-06 17:03 | 47.87086 | -90.70674 | 12946 ft | 199 kts | 114° |
| 2026-05-06 17:03 | 47.86517 | -90.68792 | 12948 ft | 199 kts | 114° |
| 2026-05-06 17:03 | 47.85946 | -90.66913 | 12940 ft | 199 kts | 114° |
| 2026-05-06 17:04 | 47.85377 | -90.65038 | 12937 ft | 199 kts | 114° |
| 2026-05-06 17:04 | 47.84809 | -90.63166 | 12933 ft | 199 kts | 114° |
| 2026-05-06 17:04 | 47.84245 | -90.61311 | 12933 ft | 199 kts | 114° |
| 2026-05-06 17:04 | 47.83674 | -90.59435 | 12929 ft | 199 kts | 114° |
| 2026-05-06 17:05 | 47.83104 | -90.57564 | 12923 ft | 199 kts | 114° |
| 2026-05-06 17:05 | 47.82534 | -90.55691 | 12921 ft | 198 kts | 114° |
| 2026-05-06 17:05 | 47.81964 | -90.53825 | 12921 ft | 198 kts | 114° |
| 2026-05-06 17:05 | 47.81394 | -90.51954 | 12918 ft | 198 kts | 114° |
| 2026-05-06 17:06 | 47.80824 | -90.50088 | 12914 ft | 198 kts | 114° |
| 2026-05-06 17:06 | 47.80253 | -90.48221 | 12917 ft | 198 kts | 114° |
| 2026-05-06 17:06 | 47.79683 | -90.46354 | 12917 ft | 198 kts | 114° |
| 2026-05-06 17:06 | 47.79110 | -90.44488 | 12915 ft | 198 kts | 114° |
| 2026-05-06 17:07 | 47.78539 | -90.42622 | 12917 ft | 198 kts | 114° |
| 2026-05-06 17:07 | 47.77968 | -90.40760 | 12916 ft | 198 kts | 114° |
| 2026-05-06 17:07 | 47.77398 | -90.38899 | 12915 ft | 198 kts | 114° |
| 2026-05-06 17:07 | 47.76827 | -90.37042 | 12915 ft | 198 kts | 114° |
| 2026-05-06 17:08 | 47.76257 | -90.35186 | 12909 ft | 197 kts | 115° |
| 2026-05-06 17:08 | 47.75690 | -90.33339 | 12915 ft | 196 kts | 114° |
| 2026-05-06 17:08 | 47.75121 | -90.31492 | 12914 ft | 197 kts | 115° |
| 2026-05-06 17:08 | 47.74551 | -90.29640 | 12919 ft | 197 kts | 114° |
| 2026-05-06 17:09 | 47.73981 | -90.27788 | 12916 ft | 197 kts | 115° |
| 2026-05-06 17:09 | 47.73409 | -90.25935 | 12919 ft | 197 kts | 114° |
| 2026-05-06 17:09 | 47.72837 | -90.24083 | 12926 ft | 198 kts | 115° |
| 2026-05-06 17:09 | 47.72264 | -90.22225 | 12926 ft | 198 kts | 114° |
| 2026-05-06 17:10 | 47.71689 | -90.20366 | 12927 ft | 198 kts | 115° |
| 2026-05-06 17:10 | 47.71116 | -90.18514 | 12930 ft | 197 kts | 114° |
| 2026-05-06 17:10 | 47.70549 | -90.16683 | 12932 ft | 198 kts | 114° |
| 2026-05-06 17:10 | 47.69976 | -90.14829 | 12935 ft | 198 kts | 115° |
| 2026-05-06 17:11 | 47.69401 | -90.12977 | 12936 ft | 198 kts | 115° |
| 2026-05-06 17:11 | 47.68826 | -90.11123 | 12941 ft | 197 kts | 115° |
| 2026-05-06 17:11 | 47.68252 | -90.09272 | 12944 ft | 198 kts | 115° |
| 2026-05-06 17:11 | 47.67676 | -90.07418 | 12952 ft | 198 kts | 115° |
| 2026-05-06 17:12 | 47.67098 | -90.05562 | 12950 ft | 198 kts | 115° |
| 2026-05-06 17:12 | 47.66521 | -90.03707 | 12952 ft | 198 kts | 115° |
| 2026-05-06 17:12 | 47.65944 | -90.01852 | 12960 ft | 198 kts | 115° |
| 2026-05-06 17:12 | 47.65366 | -89.99995 | 12960 ft | 198 kts | 115° |
| 2026-05-06 17:13 | 47.64786 | -89.98137 | 12963 ft | 198 kts | 115° |
| 2026-05-06 17:13 | 47.64207 | -89.96283 | 12965 ft | 198 kts | 115° |
| 2026-05-06 17:13 | 47.63823 | -89.95053 | 12968 ft | 198 kts | 115° |
| 2026-05-06 17:13 | 47.63050 | -89.92576 | 12971 ft | 198 kts | 115° |
| 2026-05-06 17:14 | 47.62470 | -89.90723 | 12976 ft | 198 kts | 115° |
| 2026-05-06 17:14 | 47.61897 | -89.88894 | 12975 ft | 198 kts | 115° |
| 2026-05-06 17:14 | 47.61319 | -89.87046 | 12974 ft | 198 kts | 115° |
| 2026-05-06 17:14 | 47.60739 | -89.85194 | 12975 ft | 198 kts | 115° |
| 2026-05-06 17:15 | 47.60160 | -89.83349 | 12974 ft | 198 kts | 115° |
| 2026-05-06 17:15 | 47.59580 | -89.81502 | 12975 ft | 198 kts | 115° |
| 2026-05-06 17:15 | 47.58999 | -89.79654 | 12976 ft | 198 kts | 115° |
| 2026-05-06 17:15 | 47.58420 | -89.77809 | 12975 ft | 198 kts | 115° |
| 2026-05-06 17:16 | 47.57838 | -89.75961 | 12978 ft | 197 kts | 115° |
| 2026-05-06 17:16 | 47.57258 | -89.74118 | 12979 ft | 198 kts | 115° |
| 2026-05-06 17:16 | 47.56677 | -89.72275 | 12976 ft | 198 kts | 115° |
| 2026-05-06 17:16 | 47.56096 | -89.70429 | 12978 ft | 198 kts | 115° |
| 2026-05-06 17:17 | 47.55513 | -89.68583 | 12974 ft | 198 kts | 115° |
| 2026-05-06 17:17 | 47.54932 | -89.66741 | 12977 ft | 198 kts | 115° |
| 2026-05-06 17:17 | 47.54347 | -89.64892 | 12975 ft | 198 kts | 115° |
| 2026-05-06 17:17 | 47.53765 | -89.63050 | 12980 ft | 198 kts | 115° |
| 2026-05-06 17:18 | 47.53181 | -89.61204 | 12982 ft | 197 kts | 116° |
| 2026-05-06 17:18 | 47.52598 | -89.59362 | 12982 ft | 198 kts | 116° |
| 2026-05-06 17:18 | 47.52023 | -89.57547 | 12984 ft | 198 kts | 116° |
| 2026-05-06 17:18 | 47.51438 | -89.55704 | 12982 ft | 198 kts | 116° |
| 2026-05-06 17:19 | 47.50854 | -89.53861 | 12980 ft | 198 kts | 116° |
| 2026-05-06 17:19 | 47.50267 | -89.52016 | 12979 ft | 197 kts | 116° |
| 2026-05-06 17:19 | 47.49691 | -89.50210 | 12676 ft | 196 kts | 116° |
| 2026-05-06 17:19 | 47.49111 | -89.48386 | 12334 ft | 195 kts | 116° |
| 2026-05-06 17:20 | 47.48535 | -89.46574 | 11997 ft | 194 kts | 116° |
| 2026-05-06 17:20 | 47.47962 | -89.44771 | 11679 ft | 193 kts | 116° |
| 2026-05-06 17:20 | 47.47392 | -89.42983 | 11370 ft | 192 kts | 116° |
| 2026-05-06 17:20 | 47.46824 | -89.41201 | 11075 ft | 191 kts | 116° |
| 2026-05-06 17:21 | 47.46259 | -89.39431 | 10787 ft | 190 kts | 116° |
| 2026-05-06 17:21 | 47.45696 | -89.37669 | 10494 ft | 189 kts | 116° |
| 2026-05-06 17:21 | 47.45135 | -89.35916 | 10196 ft | 188 kts | 116° |
| 2026-05-06 17:21 | 47.44578 | -89.34171 | 9907 ft | 187 kts | 116° |
| 2026-05-06 17:22 | 47.44038 | -89.32426 | 9587 ft | 187 kts | 112° |
| 2026-05-06 17:22 | 47.43598 | -89.30625 | 9284 ft | 186 kts | 110° |
| 2026-05-06 17:22 | 47.43173 | -89.28823 | 8991 ft | 185 kts | 109° |
| 2026-05-06 17:22 | 47.42753 | -89.27035 | 8706 ft | 184 kts | 109° |
| 2026-05-06 17:23 | 47.42334 | -89.25249 | 8433 ft | 183 kts | 109° |
| 2026-05-06 17:23 | 47.41923 | -89.23477 | 8167 ft | 182 kts | 109° |
| 2026-05-06 17:23 | 47.41513 | -89.21709 | 7894 ft | 182 kts | 109° |
| 2026-05-06 17:23 | 47.41109 | -89.19946 | 7672 ft | 181 kts | 109° |
| 2026-05-06 17:24 | 47.40715 | -89.18214 | 7462 ft | 180 kts | 109° |
| 2026-05-06 17:24 | 47.40318 | -89.16462 | 7249 ft | 180 kts | 109° |
| 2026-05-06 17:24 | 47.39924 | -89.14718 | 7052 ft | 179 kts | 109° |
| 2026-05-06 17:24 | 47.39534 | -89.12976 | 6852 ft | 179 kts | 109° |
| 2026-05-06 17:25 | 47.39147 | -89.11238 | 6661 ft | 178 kts | 109° |
| 2026-05-06 17:25 | 47.38762 | -89.09507 | 6482 ft | 177 kts | 109° |
| 2026-05-06 17:25 | 47.38381 | -89.07783 | 6307 ft | 177 kts | 109° |
| 2026-05-06 17:25 | 47.38005 | -89.06056 | 6127 ft | 176 kts | 108° |
| 2026-05-06 17:26 | 47.37661 | -89.04319 | 5946 ft | 176 kts | 107° |
| 2026-05-06 17:26 | 47.37323 | -89.02590 | 5771 ft | 175 kts | 107° |
| 2026-05-06 17:26 | 47.36985 | -89.00855 | 5611 ft | 175 kts | 107° |
| 2026-05-06 17:26 | 47.36652 | -88.99127 | 5449 ft | 175 kts | 107° |
| 2026-05-06 17:27 | 47.36322 | -88.97406 | 5303 ft | 175 kts | 107° |
| 2026-05-06 17:27 | 47.35992 | -88.95685 | 5202 ft | 174 kts | 107° |
| 2026-05-06 17:27 | 47.35668 | -88.93970 | 5115 ft | 173 kts | 107° |
| 2026-05-06 17:27 | 47.35345 | -88.92255 | 5021 ft | 174 kts | 107° |
| 2026-05-06 17:28 | 47.35022 | -88.90537 | 4929 ft | 174 kts | 107° |
| 2026-05-06 17:28 | 47.34679 | -88.88827 | 4907 ft | 173 kts | 111° |
| 2026-05-06 17:28 | 47.34328 | -88.87446 | 4851 ft | 172 kts | 113° |
| 2026-05-06 17:28 | 47.34114 | -88.86619 | 4831 ft | 174 kts | 113° |
| 2026-05-06 17:29 | 47.33829 | -88.85512 | 4831 ft | 172 kts | 113° |
| 2026-05-06 17:29 | 47.33408 | -88.83881 | 4500 ft | 172 kts | 114° |
| 2026-05-06 17:29 | 47.32976 | -88.82245 | 4168 ft | 171 kts | 114° |
| 2026-05-06 17:29 | 47.32545 | -88.80618 | 3852 ft | 170 kts | 114° |
| 2026-05-06 17:30 | 47.32116 | -88.78993 | 3537 ft | 170 kts | 114° |
| 2026-05-06 17:30 | 47.31551 | -88.76853 | 3132 ft | 169 kts | 115° |
| 2026-05-06 17:30 | 47.31246 | -88.75772 | 2911 ft | 169 kts | 116° |
| 2026-05-06 17:30 | 47.30795 | -88.74201 | 2615 ft | 169 kts | 116° |
| 2026-05-06 17:31 | 47.30333 | -88.72595 | 2321 ft | 168 kts | 116° |
| 2026-05-06 17:31 | 47.29876 | -88.71026 | 2162 ft | 161 kts | 116° |
| 2026-05-06 17:31 | 47.29453 | -88.69569 | 2151 ft | 153 kts | 116° |
| 2026-05-06 17:31 | 47.29043 | -88.68142 | 2198 ft | 147 kts | 116° |
| 2026-05-06 17:32 | 47.28648 | -88.66780 | 2188 ft | 148 kts | 117° |
| 2026-05-06 17:32 | 47.28167 | -88.65253 | 2218 ft | 174 kts | 118° |
| 2026-05-06 17:32 | 47.27633 | -88.63611 | 2217 ft | 185 kts | 119° |
| 2026-05-06 17:32 | 47.27036 | -88.61904 | 2207 ft | 189 kts | 120° |
| 2026-05-06 17:33 | 47.26405 | -88.60201 | 2197 ft | 189 kts | 130° |
| 2026-05-06 17:33 | 47.25399 | -88.59070 | 2204 ft | 181 kts | 158° |
| 2026-05-06 17:33 | 47.24275 | -88.58256 | 2204 ft | 179 kts | 164° |
| 2026-05-06 17:33 | 47.23123 | -88.57647 | 2197 ft | 173 kts | 168° |
| 2026-05-06 17:34 | 47.21996 | -88.57073 | 2192 ft | 170 kts | 168° |
| 2026-05-06 17:34 | 47.20882 | -88.56508 | 2191 ft | 168 kts | 168° |
| 2026-05-06 17:34 | 47.19802 | -88.55816 | 2184 ft | 172 kts | 156° |
| 2026-05-06 17:34 | 47.18811 | -88.54806 | 2191 ft | 175 kts | 148° |
| 2026-05-06 17:35 | 47.17890 | -88.53648 | 2183 ft | 170 kts | 142° |
| 2026-05-06 17:35 | 47.17052 | -88.52514 | 2189 ft | 155 kts | 142° |
| 2026-05-06 17:35 | 47.16323 | -88.51405 | 2180 ft | 148 kts | 137° |
| 2026-05-06 17:36 | 47.15033 | -88.49278 | 2184 ft | 127 kts | 137° |
| 2026-05-06 17:36 | 47.14461 | -88.48317 | 2084 ft | 127 kts | 137° |
| 2026-05-06 17:36 | 47.13854 | -88.47316 | 2000 ft | 130 kts | 138° |
| 2026-05-06 17:36 | 47.13260 | -88.46331 | 2004 ft | 129 kts | 137° |
| 2026-05-06 17:37 | 47.12669 | -88.45347 | 1985 ft | 127 kts | 137° |
| 2026-05-06 17:37 | 47.12162 | -88.44328 | 1981 ft | 122 kts | 129° |
| 2026-05-06 17:37 | 47.11843 | -88.43235 | 1981 ft | 116 kts | 81° |
| 2026-05-06 17:37 | 47.12099 | -88.42198 | 1976 ft | 101 kts | 31° |
| 2026-05-06 17:38 | 47.12664 | -88.42062 | 1986 ft | 80 kts | 341° |
| 2026-05-06 17:38 | 47.13037 | -88.42496 | 2011 ft | 74 kts | 297° |
| 2026-05-06 17:38 | 47.13456 | -88.43089 | 2017 ft | 89 kts | 306° |
| 2026-05-06 17:38 | 47.13889 | -88.43770 | 1967 ft | 86 kts | 308° |
| 2026-05-06 17:39 | 47.14271 | -88.44392 | 1796 ft | 78 kts | 307° |
| 2026-05-06 17:39 | 47.14622 | -88.44975 | 1660 ft | 75 kts | 308° |
| 2026-05-06 17:39 | 47.14959 | -88.45535 | 1538 ft | 72 kts | 307° |
| 2026-05-06 17:39 | 47.15278 | -88.46068 | 1436 ft | 68 kts | 307° |
| 2026-05-06 17:40 | 47.15589 | -88.46600 | 1336 ft | 70 kts | 309° |
| 2026-05-06 17:40 | 47.15905 | -88.47139 | 1244 ft | 69 kts | 308° |
| 2026-05-06 17:40 | 47.16219 | -88.47662 | 1147 ft | 68 kts | 308° |
| 2026-05-06 17:40 | 47.16523 | -88.48191 | 1093 ft | 65 kts | 310° |
| 2026-05-06 17:41 | 47.16783 | -88.48635 | 1075 ft | 45 kts | 311° |
| 2026-05-06 17:41 | 47.16923 | -88.48861 | 1077 ft | 19 kts | 310° |
| 2026-05-06 17:41 | 47.17021 | -88.49029 | 1081 ft | 20 kts | 307° |
| 2026-05-06 17:41 | 47.17043 | -88.49155 | 1083 ft | 10 kts | 229° |
| 2026-05-06 17:42 | 47.17008 | -88.49233 | 1083 ft | 9 kts | 285° |
| 2026-05-06 17:42 | 47.17040 | -88.49300 | 1085 ft | 9 kts | 309° |
| 2026-05-06 17:42 | 47.17015 | -88.49344 | 1084 ft | 10 kts | 164° |
| 2026-05-06 17:42 | 47.16921 | -88.49299 | 1080 ft | 17 kts | 174° |
| 2026-05-06 17:43 | 47.16825 | -88.49330 | 1076 ft | 9 kts | 206° |
| 2026-05-06 17:43 | 47.16803 | -88.49370 | 1074 ft | 4 kts | 267° |
| 2026-05-06 17:43 | 47.16804 | -88.49376 | 1074 ft | 0 kts | 280° |